sensor_id;sensor_type;location;lat;lon;timestamp;pressure;altitude;pressure_sealevel;temperature;humidity
9139;BME280;4604;48.616;9.548;2022-10-17T00:02:18;97435.56;;;17.66;68.11
9139;BME280;4604;48.616;9.548;2022-10-17T00:04:45;97444.44;;;17.42;69.33
9139;BME280;4604;48.616;9.548;2022-10-17T00:07:12;97427.78;;;17.24;69.80
9139;BME280;4604;48.616;9.548;2022-10-17T00:09:41;97434.63;;;17.26;70.44
9139;BME280;4604;48.616;9.548;2022-10-17T00:12:08;97440.47;;;17.14;70.87
9139;BME280;4604;48.616;9.548;2022-10-17T00:14:35;97438.81;;;16.96;71.73
9139;BME280;4604;48.616;9.548;2022-10-17T00:17:02;97448.47;;;16.89;72.73
9139;BME280;4604;48.616;9.548;2022-10-17T00:19:30;97456.13;;;16.76;73.70
9139;BME280;4604;48.616;9.548;2022-10-17T00:21:57;97451.59;;;16.60;74.44
9139;BME280;4604;48.616;9.548;2022-10-17T00:24:24;97438.22;;;16.35;75.08
9139;BME280;4604;48.616;9.548;2022-10-17T00:26:51;97442.31;;;16.21;75.77
9139;BME280;4604;48.616;9.548;2022-10-17T00:29:17;97454.34;;;16.25;76.43
9139;BME280;4604;48.616;9.548;2022-10-17T00:31:44;97464.44;;;16.14;77.20
9139;BME280;4604;48.616;9.548;2022-10-17T00:34:11;97464.91;;;16.01;78.25
9139;BME280;4604;48.616;9.548;2022-10-17T00:36:39;97459.84;;;15.90;79.13
9139;BME280;4604;48.616;9.548;2022-10-17T00:39:06;97464.31;;;15.81;79.64
9139;BME280;4604;48.616;9.548;2022-10-17T00:41:33;97476.91;;;15.71;80.27
9139;BME280;4604;48.616;9.548;2022-10-17T00:45:03;97472.34;;;15.63;81.31
9139;BME280;4604;48.616;9.548;2022-10-17T00:46:54;97475.78;;;15.55;82.26
9139;BME280;4604;48.616;9.548;2022-10-17T00:49:21;97469.59;;;15.47;82.97
9139;BME280;4604;48.616;9.548;2022-10-17T00:51:53;97412.41;;;14.98;83.33
9139;BME280;4604;48.616;9.548;2022-10-17T00:54:24;97461.81;;;15.27;83.78
9139;BME280;4604;48.616;9.548;2022-10-17T00:56:52;97460.38;;;15.15;84.25
9139;BME280;4604;48.616;9.548;2022-10-17T00:59:21;97463.88;;;15.15;84.47
9139;BME280;4604;48.616;9.548;2022-10-17T01:02:02;97454.47;;;15.03;84.89
9139;BME280;4604;48.616;9.548;2022-10-17T01:04:29;97460.16;;;15.08;84.56
9139;BME280;4604;48.616;9.548;2022-10-17T01:06:58;97453.09;;;14.99;84.77
9139;BME280;4604;48.616;9.548;2022-10-17T01:09:25;97456.38;;;14.93;85.01
9139;BME280;4604;48.616;9.548;2022-10-17T01:11:55;97457.81;;;14.87;85.74
9139;BME280;4604;48.616;9.548;2022-10-17T01:14:30;97458.97;;;14.85;86.44
9139;BME280;4604;48.616;9.548;2022-10-17T01:17:03;97468.69;;;14.76;87.06
9139;BME280;4604;48.616;9.548;2022-10-17T01:19:43;97460.81;;;14.66;87.97
9139;BME280;4604;48.616;9.548;2022-10-17T01:22:25;97460.13;;;14.64;88.46
9139;BME280;4604;48.616;9.548;2022-10-17T01:25:12;97465.38;;;14.56;89.24
9139;BME280;4604;48.616;9.548;2022-10-17T01:27:51;97464.78;;;14.52;90.13
9139;BME280;4604;48.616;9.548;2022-10-17T01:30:54;97465.66;;;14.43;91.13
9139;BME280;4604;48.616;9.548;2022-10-17T01:33:46;97464.25;;;14.49;91.03
9139;BME280;4604;48.616;9.548;2022-10-17T01:36:23;97411.63;;;14.17;90.78
9139;BME280;4604;48.616;9.548;2022-10-17T01:38:58;97456.44;;;14.47;90.65
9139;BME280;4604;48.616;9.548;2022-10-17T01:41:34;97464.94;;;14.51;90.88
9139;BME280;4604;48.616;9.548;2022-10-17T01:44:10;97446.44;;;14.41;91.25
9139;BME280;4604;48.616;9.548;2022-10-17T01:46:43;97465.75;;;14.33;91.65
9139;BME280;4604;48.616;9.548;2022-10-17T01:49:13;97467.19;;;14.28;91.95
9139;BME280;4604;48.616;9.548;2022-10-17T01:51:44;97466.28;;;14.19;92.60
9139;BME280;4604;48.616;9.548;2022-10-17T01:54:16;97459.88;;;14.12;92.96
9139;BME280;4604;48.616;9.548;2022-10-17T01:56:48;97457.81;;;14.06;93.34
9139;BME280;4604;48.616;9.548;2022-10-17T01:59:19;97457.28;;;14.02;93.39
9139;BME280;4604;48.616;9.548;2022-10-17T02:01:51;97440.84;;;13.89;93.97
9139;BME280;4604;48.616;9.548;2022-10-17T02:04:19;97452.44;;;13.88;94.59
9139;BME280;4604;48.616;9.548;2022-10-17T02:06:46;97448.84;;;13.79;95.15
9139;BME280;4604;48.616;9.548;2022-10-17T02:09:18;97454.47;;;13.76;95.77
9139;BME280;4604;48.616;9.548;2022-10-17T02:11:57;97451.72;;;13.68;96.69
9139;BME280;4604;48.616;9.548;2022-10-17T02:14:31;97446.97;;;13.62;97.53
9139;BME280;4604;48.616;9.548;2022-10-17T02:17:13;97440.44;;;13.56;98.11
9139;BME280;4604;48.616;9.548;2022-10-17T02:19:54;97428.03;;;13.47;98.00
9139;BME280;4604;48.616;9.548;2022-10-17T02:22:31;97437.91;;;13.55;98.25
9139;BME280;4604;48.616;9.548;2022-10-17T02:25:06;97441.69;;;13.52;99.11
9139;BME280;4604;48.616;9.548;2022-10-17T02:27:42;97446.00;;;13.53;99.49
9139;BME280;4604;48.616;9.548;2022-10-17T02:30:22;97434.19;;;13.47;99.66
9139;BME280;4604;48.616;9.548;2022-10-17T02:32:57;97441.72;;;13.42;100.00
9139;BME280;4604;48.616;9.548;2022-10-17T02:35:30;97447.47;;;13.38;100.00
9139;BME280;4604;48.616;9.548;2022-10-17T02:37:59;97452.22;;;13.34;100.00
9139;BME280;4604;48.616;9.548;2022-10-17T02:40:28;97453.88;;;13.35;100.00
9139;BME280;4604;48.616;9.548;2022-10-17T02:42:58;97453.06;;;13.35;100.00
9139;BME280;4604;48.616;9.548;2022-10-17T02:45:26;97451.09;;;13.37;100.00
9139;BME280;4604;48.616;9.548;2022-10-17T02:47:59;97453.88;;;13.35;100.00
9139;BME280;4604;48.616;9.548;2022-10-17T02:50:36;97413.34;;;13.05;100.00
9139;BME280;4604;48.616;9.548;2022-10-17T02:53:08;97447.47;;;13.28;100.00
9139;BME280;4604;48.616;9.548;2022-10-17T02:55:42;97428.94;;;13.18;100.00
9139;BME280;4604;48.616;9.548;2022-10-17T02:58:16;97413.63;;;13.02;100.00
9139;BME280;4604;48.616;9.548;2022-10-17T03:00:44;97430.34;;;13.13;100.00
9139;BME280;4604;48.616;9.548;2022-10-17T03:03:21;97461.16;;;13.33;100.00
9139;BME280;4604;48.616;9.548;2022-10-17T03:05:49;97442.19;;;13.18;100.00
9139;BME280;4604;48.616;9.548;2022-10-17T03:08:16;97472.03;;;13.40;100.00
9139;BME280;4604;48.616;9.548;2022-10-17T03:10:43;97475.94;;;13.36;100.00
9139;BME280;4604;48.616;9.548;2022-10-17T03:13:10;97474.56;;;13.32;100.00
9139;BME280;4604;48.616;9.548;2022-10-17T03:15:37;97472.72;;;13.22;100.00
9139;BME280;4604;48.616;9.548;2022-10-17T03:18:04;97447.78;;;13.05;100.00
9139;BME280;4604;48.616;9.548;2022-10-17T03:20:32;97465.09;;;13.10;100.00
9139;BME280;4604;48.616;9.548;2022-10-17T03:22:59;97476.34;;;13.12;100.00
9139;BME280;4604;48.616;9.548;2022-10-17T03:25:26;97485.72;;;13.06;100.00
9139;BME280;4604;48.616;9.548;2022-10-17T03:27:53;97443.63;;;12.74;100.00
9139;BME280;4604;48.616;9.548;2022-10-17T03:30:20;97480.72;;;12.93;100.00
9139;BME280;4604;48.616;9.548;2022-10-17T03:32:47;97453.53;;;12.72;100.00
9139;BME280;4604;48.616;9.548;2022-10-17T03:35:13;97468.59;;;12.81;100.00
9139;BME280;4604;48.616;9.548;2022-10-17T03:37:42;97449.88;;;12.63;100.00
9139;BME280;4604;48.616;9.548;2022-10-17T03:40:09;97468.88;;;12.68;100.00
9139;BME280;4604;48.616;9.548;2022-10-17T03:42:36;97469.00;;;12.67;100.00
9139;BME280;4604;48.616;9.548;2022-10-17T03:45:04;97453.38;;;12.54;100.00
9139;BME280;4604;48.616;9.548;2022-10-17T03:47:31;97494.09;;;12.72;100.00
9139;BME280;4604;48.616;9.548;2022-10-17T03:49:57;97492.97;;;12.75;100.00
9139;BME280;4604;48.616;9.548;2022-10-17T03:52:24;97503.56;;;12.75;100.00
9139;BME280;4604;48.616;9.548;2022-10-17T03:54:52;97452.09;;;12.48;100.00
9139;BME280;4604;48.616;9.548;2022-10-17T03:57:19;97475.94;;;12.58;100.00
9139;BME280;4604;48.616;9.548;2022-10-17T03:59:46;97516.81;;;12.75;100.00
9139;BME280;4604;48.616;9.548;2022-10-17T04:02:13;97510.13;;;12.71;100.00
9139;BME280;4604;48.616;9.548;2022-10-17T04:04:40;97499.13;;;12.66;100.00
9139;BME280;4604;48.616;9.548;2022-10-17T04:07:06;97507.59;;;12.69;100.00
9139;BME280;4604;48.616;9.548;2022-10-17T04:09:33;97506.91;;;12.67;100.00
9139;BME280;4604;48.616;9.548;2022-10-17T04:12:01;97506.47;;;12.62;100.00
9139;BME280;4604;48.616;9.548;2022-10-17T04:14:28;97491.81;;;12.48;100.00
9139;BME280;4604;48.616;9.548;2022-10-17T04:16:55;97517.66;;;12.56;100.00
9139;BME280;4604;48.616;9.548;2022-10-17T04:19:22;97512.31;;;12.46;100.00
9139;BME280;4604;48.616;9.548;2022-10-17T04:21:50;97514.00;;;12.47;100.00
9139;BME280;4604;48.616;9.548;2022-10-17T04:24:17;97493.78;;;12.36;100.00
9139;BME280;4604;48.616;9.548;2022-10-17T04:26:43;97515.63;;;12.38;100.00
9139;BME280;4604;48.616;9.548;2022-10-17T04:29:12;97513.53;;;12.32;100.00
9139;BME280;4604;48.616;9.548;2022-10-17T04:31:39;97526.78;;;12.32;100.00
9139;BME280;4604;48.616;9.548;2022-10-17T04:34:06;97533.19;;;12.30;100.00
9139;BME280;4604;48.616;9.548;2022-10-17T04:36:33;97532.34;;;12.29;100.00
9139;BME280;4604;48.616;9.548;2022-10-17T04:39:00;97532.75;;;12.25;100.00
9139;BME280;4604;48.616;9.548;2022-10-17T04:41:27;97516.56;;;12.18;100.00
9139;BME280;4604;48.616;9.548;2022-10-17T04:43:54;97533.31;;;12.28;100.00
9139;BME280;4604;48.616;9.548;2022-10-17T04:46:22;97541.81;;;12.32;100.00
9139;BME280;4604;48.616;9.548;2022-10-17T04:48:49;97542.66;;;12.32;100.00
9139;BME280;4604;48.616;9.548;2022-10-17T04:51:17;97534.84;;;12.31;100.00
9139;BME280;4604;48.616;9.548;2022-10-17T04:53:44;97525.50;;;12.27;100.00
9139;BME280;4604;48.616;9.548;2022-10-17T04:56:13;97539.88;;;12.34;100.00
9139;BME280;4604;48.616;9.548;2022-10-17T04:58:41;97540.00;;;12.32;100.00
9139;BME280;4604;48.616;9.548;2022-10-17T05:01:10;97534.28;;;12.27;100.00
9139;BME280;4604;48.616;9.548;2022-10-17T05:03:39;97537.75;;;12.28;100.00
9139;BME280;4604;48.616;9.548;2022-10-17T05:06:08;97539.69;;;12.26;100.00
9139;BME280;4604;48.616;9.548;2022-10-17T05:08:35;97546.09;;;12.23;100.00
9139;BME280;4604;48.616;9.548;2022-10-17T05:11:15;97536.63;;;12.20;100.00
9139;BME280;4604;48.616;9.548;2022-10-17T05:13:42;97526.28;;;12.08;100.00
9139;BME280;4604;48.616;9.548;2022-10-17T05:16:09;97537.31;;;12.13;100.00
9139;BME280;4604;48.616;9.548;2022-10-17T05:18:35;97532.13;;;12.11;100.00
9139;BME280;4604;48.616;9.548;2022-10-17T05:21:05;97534.78;;;12.11;100.00
9139;BME280;4604;48.616;9.548;2022-10-17T05:23:32;97539.81;;;12.14;100.00
9139;BME280;4604;48.616;9.548;2022-10-17T05:25:59;97543.59;;;12.31;100.00
9139;BME280;4604;48.616;9.548;2022-10-17T05:28:26;97546.25;;;12.31;100.00
9139;BME280;4604;48.616;9.548;2022-10-17T05:30:53;97542.66;;;12.32;100.00
9139;BME280;4604;48.616;9.548;2022-10-17T05:33:21;97539.03;;;12.33;100.00
9139;BME280;4604;48.616;9.548;2022-10-17T05:35:48;97523.69;;;12.27;100.00
9139;BME280;4604;48.616;9.548;2022-10-17T05:38:16;97543.09;;;12.37;100.00
9139;BME280;4604;48.616;9.548;2022-10-17T05:40:43;97535.97;;;12.38;100.00
9139;BME280;4604;48.616;9.548;2022-10-17T05:43:09;97532.50;;;12.37;100.00
9139;BME280;4604;48.616;9.548;2022-10-17T05:45:36;97530.66;;;12.28;100.00
9139;BME280;4604;48.616;9.548;2022-10-17T05:48:03;97542.94;;;12.29;100.00
9139;BME280;4604;48.616;9.548;2022-10-17T05:50:30;97541.09;;;12.20;100.00
9139;BME280;4604;48.616;9.548;2022-10-17T05:52:56;97528.53;;;12.12;100.00
9139;BME280;4604;48.616;9.548;2022-10-17T05:55:24;97543.59;;;12.21;100.00
9139;BME280;4604;48.616;9.548;2022-10-17T05:57:51;97549.03;;;12.20;100.00
9139;BME280;4604;48.616;9.548;2022-10-17T06:00:19;97530.19;;;12.13;100.00
9139;BME280;4604;48.616;9.548;2022-10-17T06:02:46;97549.72;;;12.22;100.00
9139;BME280;4604;48.616;9.548;2022-10-17T06:05:13;97547.91;;;12.23;100.00
9139;BME280;4604;48.616;9.548;2022-10-17T06:07:40;97551.00;;;12.28;100.00
9139;BME280;4604;48.616;9.548;2022-10-17T06:10:07;97561.31;;;12.31;100.00
9139;BME280;4604;48.616;9.548;2022-10-17T06:12:38;97564.25;;;12.37;100.00
9139;BME280;4604;48.616;9.548;2022-10-17T06:15:05;97570.00;;;12.52;100.00
9139;BME280;4604;48.616;9.548;2022-10-17T06:17:32;97577.69;;;12.65;100.00
9139;BME280;4604;48.616;9.548;2022-10-17T06:19:59;97572.69;;;12.62;100.00
9139;BME280;4604;48.616;9.548;2022-10-17T06:22:26;97583.88;;;12.66;100.00
9139;BME280;4604;48.616;9.548;2022-10-17T06:24:52;97590.94;;;12.65;100.00
9139;BME280;4604;48.616;9.548;2022-10-17T06:27:21;97589.31;;;12.74;100.00
9139;BME280;4604;48.616;9.548;2022-10-17T06:29:49;97592.38;;;12.79;100.00
9139;BME280;4604;48.616;9.548;2022-10-17T06:32:16;97590.56;;;12.79;100.00
9139;BME280;4604;48.616;9.548;2022-10-17T06:34:43;97588.75;;;12.80;100.00
9139;BME280;4604;48.616;9.548;2022-10-17T06:37:09;97592.94;;;12.82;100.00
9139;BME280;4604;48.616;9.548;2022-10-17T06:39:36;97572.00;;;12.70;100.00
9139;BME280;4604;48.616;9.548;2022-10-17T06:42:04;97591.25;;;12.81;100.00
9139;BME280;4604;48.616;9.548;2022-10-17T06:44:31;97597.81;;;12.87;100.00
9139;BME280;4604;48.616;9.548;2022-10-17T06:46:59;97595.16;;;12.87;100.00
9139;BME280;4604;48.616;9.548;2022-10-17T06:49:26;97601.34;;;12.97;100.00
9139;BME280;4604;48.616;9.548;2022-10-17T06:51:53;97602.31;;;13.06;100.00
9139;BME280;4604;48.616;9.548;2022-10-17T06:54:20;97605.09;;;13.14;100.00
9139;BME280;4604;48.616;9.548;2022-10-17T06:56:47;97605.97;;;13.24;100.00
9139;BME280;4604;48.616;9.548;2022-10-17T06:59:14;97612.84;;;13.37;100.00
9139;BME280;4604;48.616;9.548;2022-10-17T07:01:41;97624.56;;;13.44;100.00
9139;BME280;4604;48.616;9.548;2022-10-17T07:04:09;97622.16;;;13.51;100.00
9139;BME280;4604;48.616;9.548;2022-10-17T07:06:36;97624.69;;;13.62;100.00
9139;BME280;4604;48.616;9.548;2022-10-17T07:09:03;97626.31;;;13.73;100.00
9139;BME280;4604;48.616;9.548;2022-10-17T07:11:32;97628.53;;;13.87;100.00
9139;BME280;4604;48.616;9.548;2022-10-17T07:13:59;97621.41;;;13.97;100.00
9139;BME280;4604;48.616;9.548;2022-10-17T07:16:26;97619.16;;;14.12;100.00
9139;BME280;4604;48.616;9.548;2022-10-17T07:18:53;97618.25;;;14.21;100.00
9139;BME280;4604;48.616;9.548;2022-10-17T07:21:21;97614.16;;;14.37;100.00
9139;BME280;4604;48.616;9.548;2022-10-17T07:23:48;97606.16;;;14.56;100.00
9139;BME280;4604;48.616;9.548;2022-10-17T07:26:16;97607.84;;;14.75;100.00
9139;BME280;4604;48.616;9.548;2022-10-17T07:28:45;97595.56;;;14.92;100.00
9139;BME280;4604;48.616;9.548;2022-10-17T07:31:14;97608.91;;;15.10;100.00
9139;BME280;4604;48.616;9.548;2022-10-17T07:33:41;97611.03;;;15.24;100.00
9139;BME280;4604;48.616;9.548;2022-10-17T07:36:08;97626.00;;;15.43;100.00
9139;BME280;4604;48.616;9.548;2022-10-17T07:38:36;97618.63;;;15.55;100.00
9139;BME280;4604;48.616;9.548;2022-10-17T07:41:06;97619.63;;;15.72;100.00
9139;BME280;4604;48.616;9.548;2022-10-17T07:43:33;97627.09;;;15.94;100.00
9139;BME280;4604;48.616;9.548;2022-10-17T07:46:07;97640.38;;;16.12;100.00
9139;BME280;4604;48.616;9.548;2022-10-17T07:48:36;97648.00;;;16.07;100.00
9139;BME280;4604;48.616;9.548;2022-10-17T07:51:05;97642.31;;;16.28;100.00
9139;BME280;4604;48.616;9.548;2022-10-17T07:53:35;97648.53;;;16.37;99.77
9139;BME280;4604;48.616;9.548;2022-10-17T07:56:05;97649.25;;;16.47;98.56
9139;BME280;4604;48.616;9.548;2022-10-17T07:58:33;97650.06;;;16.47;99.71
9139;BME280;4604;48.616;9.548;2022-10-17T08:01:00;97651.00;;;16.38;98.06
9139;BME280;4604;48.616;9.548;2022-10-17T08:03:27;97652.72;;;16.47;96.95
9139;BME280;4604;48.616;9.548;2022-10-17T08:05:56;97636.13;;;16.54;95.93
9139;BME280;4604;48.616;9.548;2022-10-17T08:08:24;97649.63;;;16.60;96.76
9139;BME280;4604;48.616;9.548;2022-10-17T08:10:53;97655.38;;;16.74;95.87
9139;BME280;4604;48.616;9.548;2022-10-17T08:13:21;97657.59;;;16.78;96.32
9139;BME280;4604;48.616;9.548;2022-10-17T08:15:48;97660.50;;;17.01;96.10
9139;BME280;4604;48.616;9.548;2022-10-17T08:18:14;97663.22;;;17.09;94.40
9139;BME280;4604;48.616;9.548;2022-10-17T08:20:42;97659.59;;;17.27;93.58
9139;BME280;4604;48.616;9.548;2022-10-17T08:23:08;97654.59;;;17.32;92.95
9139;BME280;4604;48.616;9.548;2022-10-17T08:25:37;97653.75;;;17.40;92.64
9139;BME280;4604;48.616;9.548;2022-10-17T08:28:05;97644.59;;;17.34;92.06
9139;BME280;4604;48.616;9.548;2022-10-17T08:30:32;97661.44;;;17.43;91.66
9139;BME280;4604;48.616;9.548;2022-10-17T08:32:59;97664.13;;;17.51;92.32
9139;BME280;4604;48.616;9.548;2022-10-17T08:35:26;97658.63;;;17.44;91.11
9139;BME280;4604;48.616;9.548;2022-10-17T08:37:53;97668.31;;;17.62;91.29
9139;BME280;4604;48.616;9.548;2022-10-17T08:40:24;97655.59;;;17.55;89.69
9139;BME280;4604;48.616;9.548;2022-10-17T08:43:02;97670.88;;;17.88;88.08
9139;BME280;4604;48.616;9.548;2022-10-17T08:45:35;97665.13;;;17.74;88.00
9139;BME280;4604;48.616;9.548;2022-10-17T08:48:09;97666.84;;;17.84;88.28
9139;BME280;4604;48.616;9.548;2022-10-17T08:50:41;97669.03;;;18.05;87.04
9139;BME280;4604;48.616;9.548;2022-10-17T08:53:16;97672.34;;;18.07;86.48
9139;BME280;4604;48.616;9.548;2022-10-17T08:55:45;97676.53;;;18.09;87.01
9139;BME280;4604;48.616;9.548;2022-10-17T08:58:14;97683.22;;;18.22;85.47
9139;BME280;4604;48.616;9.548;2022-10-17T09:00:48;97688.88;;;18.18;85.76
9139;BME280;4604;48.616;9.548;2022-10-17T09:03:27;97687.38;;;18.24;86.68
9139;BME280;4604;48.616;9.548;2022-10-17T09:06:12;97681.69;;;18.11;88.74
9139;BME280;4604;48.616;9.548;2022-10-17T09:08:51;97684.03;;;18.06;89.12
9139;BME280;4604;48.616;9.548;2022-10-17T09:11:33;97696.88;;;18.18;88.64
9139;BME280;4604;48.616;9.548;2022-10-17T09:14:17;97699.91;;;18.07;88.50
9139;BME280;4604;48.616;9.548;2022-10-17T09:17:01;97698.41;;;18.13;88.79
9139;BME280;4604;48.616;9.548;2022-10-17T09:19:34;97701.56;;;18.25;84.67
9139;BME280;4604;48.616;9.548;2022-10-17T09:22:05;97699.38;;;18.36;83.62
9139;BME280;4604;48.616;9.548;2022-10-17T09:24:41;97703.72;;;18.29;82.28
9139;BME280;4604;48.616;9.548;2022-10-17T09:27:17;97710.22;;;18.51;80.29
9139;BME280;4604;48.616;9.548;2022-10-17T09:29:48;97705.81;;;18.67;81.34
9139;BME280;4604;48.616;9.548;2022-10-17T09:32:20;97697.97;;;18.81;81.31
9139;BME280;4604;48.616;9.548;2022-10-17T09:34:48;97696.94;;;18.91;80.56
9139;BME280;4604;48.616;9.548;2022-10-17T09:37:16;97693.69;;;19.03;80.27
9139;BME280;4604;48.616;9.548;2022-10-17T09:39:43;97706.00;;;19.21;78.35
9139;BME280;4604;48.616;9.548;2022-10-17T09:42:13;97695.38;;;19.36;76.65
9139;BME280;4604;48.616;9.548;2022-10-17T09:44:47;97692.88;;;19.34;77.82
9139;BME280;4604;48.616;9.548;2022-10-17T09:47:27;97695.34;;;19.44;78.87
9139;BME280;4604;48.616;9.548;2022-10-17T09:49:55;97692.44;;;19.54;78.82
9139;BME280;4604;48.616;9.548;2022-10-17T09:52:27;97695.72;;;19.64;78.36
9139;BME280;4604;48.616;9.548;2022-10-17T09:54:58;97696.69;;;19.71;77.75
9139;BME280;4604;48.616;9.548;2022-10-17T09:57:27;97688.34;;;19.89;76.19
9139;BME280;4604;48.616;9.548;2022-10-17T09:59:58;97691.03;;;20.12;75.59
9139;BME280;4604;48.616;9.548;2022-10-17T10:02:28;97681.09;;;20.36;74.76
9139;BME280;4604;48.616;9.548;2022-10-17T10:04:59;97687.72;;;20.25;76.05
9139;BME280;4604;48.616;9.548;2022-10-17T10:07:27;97687.25;;;20.21;76.55
9139;BME280;4604;48.616;9.548;2022-10-17T10:09:56;97688.28;;;20.35;76.72
9139;BME280;4604;48.616;9.548;2022-10-17T10:12:24;97691.31;;;20.55;75.97
9139;BME280;4604;48.616;9.548;2022-10-17T10:14:52;97683.25;;;20.70;76.11
9139;BME280;4604;48.616;9.548;2022-10-17T10:17:36;97679.03;;;20.90;75.95
9139;BME280;4604;48.616;9.548;2022-10-17T10:20:25;97680.28;;;20.94;75.38
9139;BME280;4604;48.616;9.548;2022-10-17T10:23:13;97677.63;;;21.09;75.78
9139;BME280;4604;48.616;9.548;2022-10-17T10:25:55;97678.50;;;21.31;74.76
9139;BME280;4604;48.616;9.548;2022-10-17T10:28:25;97672.47;;;21.44;75.15
9139;BME280;4604;48.616;9.548;2022-10-17T10:30:54;97677.81;;;21.59;75.40
9139;BME280;4604;48.616;9.548;2022-10-17T10:33:29;97679.28;;;21.83;72.40
9139;BME280;4604;48.616;9.548;2022-10-17T10:35:59;97675.19;;;21.66;73.31
9139;BME280;4604;48.616;9.548;2022-10-17T10:38:28;97676.91;;;21.73;72.94
9139;BME280;4604;48.616;9.548;2022-10-17T10:41:00;97684.00;;;21.81;73.00
9139;BME280;4604;48.616;9.548;2022-10-17T10:43:32;97691.41;;;21.57;75.04
9139;BME280;4604;48.616;9.548;2022-10-17T10:46:02;97676.28;;;21.71;75.64
9139;BME280;4604;48.616;9.548;2022-10-17T10:48:33;97687.78;;;21.87;72.93
9139;BME280;4604;48.616;9.548;2022-10-17T10:51:04;97688.81;;;21.86;73.64
9139;BME280;4604;48.616;9.548;2022-10-17T10:53:41;97700.47;;;22.14;75.37
9139;BME280;4604;48.616;9.548;2022-10-17T10:56:13;97698.28;;;22.03;73.16
9139;BME280;4604;48.616;9.548;2022-10-17T10:58:49;97694.94;;;21.79;75.00
9139;BME280;4604;48.616;9.548;2022-10-17T11:01:24;97684.59;;;21.98;74.83
9139;BME280;4604;48.616;9.548;2022-10-17T11:04:07;97684.69;;;22.11;74.82
9139;BME280;4604;48.616;9.548;2022-10-17T11:06:40;97688.09;;;22.41;72.46
9139;BME280;4604;48.616;9.548;2022-10-17T11:09:15;97689.50;;;22.37;71.98
9139;BME280;4604;48.616;9.548;2022-10-17T11:11:47;97688.50;;;22.45;70.09
9139;BME280;4604;48.616;9.548;2022-10-17T11:14:22;97693.94;;;22.52;71.32
9139;BME280;4604;48.616;9.548;2022-10-17T11:16:56;97694.38;;;22.55;70.95
9139;BME280;4604;48.616;9.548;2022-10-17T11:19:32;97687.69;;;22.44;71.97
9139;BME280;4604;48.616;9.548;2022-10-17T11:22:06;97676.22;;;22.64;70.23
9139;BME280;4604;48.616;9.548;2022-10-17T11:24:39;97683.00;;;22.60;67.99
9139;BME280;4604;48.616;9.548;2022-10-17T11:27:09;97680.44;;;22.73;69.05
9139;BME280;4604;48.616;9.548;2022-10-17T11:29:38;97677.25;;;22.63;67.80
9139;BME280;4604;48.616;9.548;2022-10-17T11:32:09;97686.22;;;22.77;66.93
9139;BME280;4604;48.616;9.548;2022-10-17T11:34:41;97678.13;;;23.05;67.14
9139;BME280;4604;48.616;9.548;2022-10-17T11:37:14;97681.81;;;22.97;65.66
9139;BME280;4604;48.616;9.548;2022-10-17T11:39:44;97682.34;;;23.14;65.05
9139;BME280;4604;48.616;9.548;2022-10-17T11:42:18;97677.06;;;22.99;66.09
9139;BME280;4604;48.616;9.548;2022-10-17T11:44:47;97680.44;;;23.08;66.47
9139;BME280;4604;48.616;9.548;2022-10-17T11:47:26;97682.78;;;23.24;66.45
9139;BME280;4604;48.616;9.548;2022-10-17T11:50:02;97680.69;;;23.20;65.98
9139;BME280;4604;48.616;9.548;2022-10-17T11:52:36;97685.88;;;23.28;64.48
9139;BME280;4604;48.616;9.548;2022-10-17T11:55:11;97682.00;;;23.37;65.77
9139;BME280;4604;48.616;9.548;2022-10-17T11:57:53;97683.06;;;23.49;66.00
9139;BME280;4604;48.616;9.548;2022-10-17T12:00:29;97683.47;;;23.53;65.45
9139;BME280;4604;48.616;9.548;2022-10-17T12:03:10;97679.72;;;23.41;63.38
9139;BME280;4604;48.616;9.548;2022-10-17T12:05:46;97684.97;;;23.56;63.95
9139;BME280;4604;48.616;9.548;2022-10-17T12:08:22;97682.09;;;23.70;67.07
9139;BME280;4604;48.616;9.548;2022-10-17T12:10:54;97685.25;;;23.87;66.04
9139;BME280;4604;48.616;9.548;2022-10-17T12:13:50;97683.22;;;24.09;62.27
9139;BME280;4604;48.616;9.548;2022-10-17T12:16:47;97675.31;;;24.01;62.63
9139;BME280;4604;48.616;9.548;2022-10-17T12:19:25;97687.38;;;24.12;61.76
9139;BME280;4604;48.616;9.548;2022-10-17T12:21:59;97677.59;;;24.11;61.33
9139;BME280;4604;48.616;9.548;2022-10-17T12:24:37;97680.50;;;24.03;61.50
9139;BME280;4604;48.616;9.548;2022-10-17T12:27:35;97680.31;;;24.24;61.71
9139;BME280;4604;48.616;9.548;2022-10-17T12:33:02;97690.00;;;23.92;53.69
9139;BME280;4604;48.616;9.548;2022-10-17T12:35:32;97682.56;;;23.87;51.97
9139;BME280;4604;48.616;9.548;2022-10-17T12:38:20;97696.88;;;24.01;52.22
9139;BME280;4604;48.616;9.548;2022-10-17T12:40:50;97687.97;;;23.87;50.99
9139;BME280;4604;48.616;9.548;2022-10-17T12:43:51;97689.22;;;24.05;52.57
9139;BME280;4604;48.616;9.548;2022-10-17T12:46:41;97681.94;;;23.99;52.01
9139;BME280;4604;48.616;9.548;2022-10-17T12:49:39;97680.06;;;23.86;53.60
9139;BME280;4604;48.616;9.548;2022-10-17T12:52:20;97691.06;;;23.98;51.54
9139;BME280;4604;48.616;9.548;2022-10-17T12:54:56;97685.25;;;23.94;50.90
9139;BME280;4604;48.616;9.548;2022-10-17T12:57:30;97689.03;;;24.20;50.75
9139;BME280;4604;48.616;9.548;2022-10-17T13:00:01;97679.88;;;24.21;49.17
9139;BME280;4604;48.616;9.548;2022-10-17T13:02:29;97677.38;;;24.26;48.07
9139;BME280;4604;48.616;9.548;2022-10-17T13:05:03;97688.81;;;24.34;46.99
9139;BME280;4604;48.616;9.548;2022-10-17T13:07:33;97684.44;;;24.33;46.77
9139;BME280;4604;48.616;9.548;2022-10-17T13:10:18;97679.88;;;24.07;46.89
9139;BME280;4604;48.616;9.548;2022-10-17T13:12:46;97679.06;;;24.07;47.39
9139;BME280;4604;48.616;9.548;2022-10-17T13:15:16;97685.28;;;24.21;48.48
9139;BME280;4604;48.616;9.548;2022-10-17T13:17:44;97690.88;;;24.26;46.13
9139;BME280;4604;48.616;9.548;2022-10-17T13:20:18;97689.22;;;24.18;46.73
9139;BME280;4604;48.616;9.548;2022-10-17T13:22:45;97683.81;;;24.18;46.53
9139;BME280;4604;48.616;9.548;2022-10-17T13:25:14;97697.53;;;24.10;45.57
9139;BME280;4604;48.616;9.548;2022-10-17T13:27:43;97687.16;;;24.20;46.21
9139;BME280;4604;48.616;9.548;2022-10-17T13:30:31;97687.16;;;24.20;45.17
9139;BME280;4604;48.616;9.548;2022-10-17T13:32:59;97685.06;;;24.16;45.53
9139;BME280;4604;48.616;9.548;2022-10-17T13:35:28;97692.94;;;24.24;45.81
9139;BME280;4604;48.616;9.548;2022-10-17T13:37:56;97691.94;;;24.31;45.65
9139;BME280;4604;48.616;9.548;2022-10-17T13:40:26;97700.66;;;24.27;44.44
9139;BME280;4604;48.616;9.548;2022-10-17T13:42:57;97700.03;;;24.31;44.95